Time;durP1;ratioP1;P1;durP2;ratioP2;P2;SDS_P1;SDS_P2;PMS_P1;PMS_P2;Temp;Humidity;BMP_temperature;BMP_pressure;BME280_temperature;BME280_humidity;BME280_pressure;Samples;Min_cycle;Max_cycle;Signal;HPM_P1;HPM_P2
2022/01/12 00:02:36;;;;;;;163.80;66.40;;;;;;;-1.22;74.55;102191.78;130178;1267;263474;-77
2022/01/12 00:05:42;;;;;;;101.40;41.40;;;;;;;-1.23;74.39;102191.81;130407;1267;108970;-76
2022/01/12 00:08:48;;;;;;;92.70;38.90;;;;;;;-1.25;74.30;102196.73;130382;1267;108453;-76
2022/01/12 00:11:54;;;;;;;120.50;50.20;;;;;;;-1.35;74.02;102197.98;130495;1267;108841;-75
2022/01/12 00:14:59;;;;;;;143.60;58.40;;;;;;;-1.37;74.43;102195.56;130500;1267;108666;-75
2022/01/12 00:18:05;;;;;;;155.40;67.40;;;;;;;-1.37;74.25;102200.98;130490;1267;108945;-75
2022/01/12 00:21:10;;;;;;;101.50;41.80;;;;;;;-1.39;74.23;102201.71;130536;1267;107591;-77
2022/01/12 00:24:15;;;;;;;127.60;52.70;;;;;;;-1.42;74.45;102199.34;130377;1267;107726;-76
2022/01/12 00:34:11;;;;;;;172.80;48.90;;;;;;;-1.32;74.27;102186.40;130379;1267;108683;-77
2022/01/12 00:37:17;;;;;;;333.20;92.50;;;;;;;-1.26;74.12;102185.05;130352;1267;108802;-76
2022/01/12 00:40:22;;;;;;;244.20;63.10;;;;;;;-1.21;74.05;102180.94;130364;1267;108590;-76
2022/01/12 00:43:30;;;;;;;569.80;184.00;;;;;;;-1.16;74.04;102182.26;130355;1267;108709;-77
2022/01/12 00:46:36;;;;;;;304.50;85.50;;;;;;;-1.13;74.03;102183.07;130365;1267;108571;-76
2022/01/12 00:49:42;;;;;;;379.90;96.90;;;;;;;-1.11;73.92;102181.98;130348;1267;107204;-76
2022/01/12 00:52:50;;;;;;;379.00;97.90;;;;;;;-1.11;73.83;102184.78;130346;1267;108881;-76
2022/01/12 00:55:55;;;;;;;141.50;45.10;;;;;;;-1.12;73.99;102184.96;130368;1267;108796;-76
2022/01/12 00:59:01;;;;;;;202.00;53.90;;;;;;;-1.14;73.65;102191.30;130328;1267;108722;-75
2022/01/12 01:02:07;;;;;;;369.40;117.40;;;;;;;-1.18;73.72;102194.86;130165;1267;109182;-75
2022/01/12 01:05:19;;;;;;;146.70;54.40;;;;;;;-1.22;74.06;102188.46;130130;1266;109044;-76
2022/01/12 01:08:24;;;;;;;116.40;46.30;;;;;;;-1.23;73.64;102186.92;130328;1267;108839;-75
2022/01/12 01:11:30;;;;;;;65.40;28.10;;;;;;;-1.27;74.03;102187.69;130345;1267;109082;-76
2022/01/12 01:14:46;;;;;;;59.60;25.40;;;;;;;-1.28;73.91;102190.86;130393;1267;108726;-75
2022/01/12 01:28:07;;;;;;;51.30;22.20;;;;;;;-1.30;74.01;102186.01;130337;1267;108758;-74
2022/01/12 01:31:12;;;;;;;45.20;21.40;;;;;;;-1.32;73.71;102187.62;130355;1267;108853;-74
2022/01/12 01:34:19;;;;;;;45.30;21.60;;;;;;;-1.26;74.08;102189.94;130352;1267;107806;-75
2022/01/12 01:37:25;;;;;;;55.10;26.00;;;;;;;-1.19;74.03;102189.98;130253;1267;108707;-76
2022/01/12 01:40:31;;;;;;;208.40;100.30;;;;;;;-1.15;74.06;102184.52;130372;1267;108764;-77
2022/01/12 01:43:54;;;;;;;145.20;72.70;;;;;;;-1.13;73.88;102183.41;130460;1267;108874;-79
2022/01/12 01:53:48;;;;;;;225.90;116.40;;;;;;;-1.19;73.89;102187.71;130453;1268;107325;-77
2022/01/12 01:56:53;;;;;;;173.40;91.70;;;;;;;-1.23;73.71;102186.05;130362;1268;108562;-78
2022/01/12 01:59:59;;;;;;;102.40;49.60;;;;;;;-1.28;73.60;102182.14;130387;1268;108946;-77
2022/01/12 02:03:05;;;;;;;179.60;83.90;;;;;;;-1.41;73.44;102184.11;130354;1267;109071;-77
2022/01/12 02:06:26;;;;;;;348.60;158.30;;;;;;;-1.47;73.62;102185.29;130217;1267;108729;-78
2022/01/12 02:09:46;;;;;;;359.30;157.90;;;;;;;-1.48;73.71;102188.27;130381;1268;108735;-78
2022/01/12 02:13:08;;;;;;;202.80;77.90;;;;;;;-1.50;73.60;102182.20;130338;1267;108663;-78
2022/01/12 02:16:16;;;;;;;359.80;154.90;;;;;;;-1.50;73.74;102182.89;130348;1267;107902;-74
2022/01/12 02:19:46;;;;;;;72.00;30.30;;;;;;;-1.48;73.65;102185.13;130333;1267;106687;-75
2022/01/12 02:36:31;;;;;;;63.60;29.50;;;;;;;-1.31;73.57;102164.21;130400;1267;108664;-76
2022/01/12 02:39:56;;;;;;;41.20;20.90;;;;;;;-1.29;73.51;102165.22;130286;1268;108666;-75
2022/01/12 02:43:09;;;;;;;45.20;22.30;;;;;;;-1.25;73.43;102166.36;130334;1267;109207;-73
2022/01/12 02:56:26;;;;;;;85.40;34.50;;;;;;;-1.29;73.42;102166.80;130282;1268;108789;-77
2022/01/12 02:59:32;;;;;;;80.20;35.00;;;;;;;-1.28;73.47;102166.59;130255;1268;108890;-78
2022/01/12 03:02:39;;;;;;;138.70;56.00;;;;;;;-1.28;73.44;102168.35;130243;1268;106562;-75
2022/01/12 03:05:54;;;;;;;90.10;39.30;;;;;;;-1.31;73.40;102168.05;130250;1268;108868;-73
2022/01/12 03:09:01;;;;;;;59.70;25.80;;;;;;;-1.32;73.50;102171.73;130188;1268;107940;-72
2022/01/12 03:12:09;;;;;;;50.60;23.60;;;;;;;-1.31;73.55;102175.92;130168;1268;108906;-72
2022/01/12 03:15:14;;;;;;;41.00;18.30;;;;;;;-1.28;73.67;102174.45;130194;1268;108922;-72
2022/01/12 03:18:20;;;;;;;33.90;15.80;;;;;;;-1.21;73.53;102181.48;130102;1268;106829;-73
2022/01/12 03:21:29;;;;;;;34.60;16.40;;;;;;;-1.15;73.41;102182.94;130108;1268;108877;-75
2022/01/12 03:24:34;;;;;;;50.30;19.00;;;;;;;-1.07;73.31;102178.41;130089;1268;108658;-75
2022/01/12 03:27:40;;;;;;;43.20;19.90;;;;;;;-1.03;73.33;102182.17;130202;1268;108663;-74
2022/01/12 03:30:54;;;;;;;34.50;16.10;;;;;;;-1.04;73.27;102177.47;130136;1268;108748;-73
2022/01/12 03:34:06;;;;;;;37.00;17.40;;;;;;;-1.05;73.19;102174.34;130278;1270;108741;-74
2022/01/12 04:10:36;;;;;;;26.80;13.10;;;;;;;-1.62;73.15;102182.24;130197;1268;108928;-76
2022/01/12 04:13:43;;;;;;;26.60;13.40;;;;;;;-1.70;73.08;102180.28;130307;1267;108897;-76
2022/01/12 04:16:49;;;;;;;33.00;15.20;;;;;;;-1.75;73.38;102178.11;130271;1268;108759;-77
2022/01/12 04:19:54;;;;;;;38.10;17.40;;;;;;;-1.73;73.24;102184.20;130169;1267;108943;-75
2022/01/12 04:23:18;;;;;;;35.10;16.60;;;;;;;-1.78;73.28;102185.48;130171;1268;108727;-76
2022/01/12 04:26:24;;;;;;;34.50;15.30;;;;;;;-1.70;73.68;102189.35;130085;1271;108759;-75
2022/01/12 04:29:29;;;;;;;71.60;28.20;;;;;;;-1.70;73.05;102190.76;130164;1268;109025;-76
2022/01/12 04:32:37;;;;;;;62.50;25.20;;;;;;;-1.74;73.43;102190.81;130327;1268;108756;-74
2022/01/12 04:35:47;;;;;;;46.80;21.10;;;;;;;-1.68;73.52;102184.24;130330;1268;108745;-75
2022/01/12 04:38:53;;;;;;;41.20;18.80;;;;;;;-1.58;73.42;102185.14;130317;1267;108717;-77
2022/01/12 04:41:58;;;;;;;40.30;18.40;;;;;;;-1.51;73.47;102186.92;130348;1268;108669;-75
2022/01/12 04:45:16;;;;;;;46.30;20.50;;;;;;;-1.46;73.39;102184.41;130343;1268;108765;-75
2022/01/12 04:48:34;;;;;;;42.80;20.30;;;;;;;-1.51;73.12;102189.55;130346;1267;107476;-76
2022/01/12 04:51:41;;;;;;;52.20;22.30;;;;;;;-1.52;73.21;102188.17;130289;1267;107850;-76
2022/01/12 04:54:47;;;;;;;60.80;26.00;;;;;;;-1.58;73.09;102190.02;130279;1267;108947;-75
2022/01/12 04:57:54;;;;;;;79.50;34.70;;;;;;;-1.62;73.44;102184.67;130303;1267;107805;-75
2022/01/12 05:01:06;;;;;;;62.50;27.10;;;;;;;-1.58;73.57;102183.40;130344;1268;108897;-73
2022/01/12 05:07:45;;;;;;;54.40;25.30;;;;;;;-1.56;73.25;102185.27;130348;1268;108761;-74
2022/01/12 05:14:15;;;;;;;69.60;30.90;;;;;;;-1.57;73.43;102189.30;130433;1268;108788;-77
2022/01/12 05:17:20;;;;;;;73.50;29.50;;;;;;;-1.53;73.62;102184.71;130333;1268;109088;-77
2022/01/12 05:20:26;;;;;;;52.90;21.80;;;;;;;-1.44;73.40;102181.39;130154;1268;108814;-77
2022/01/12 05:23:32;;;;;;;49.80;22.40;;;;;;;-1.35;73.27;102183.85;130539;1267;108850;-77
2022/01/12 05:26:38;;;;;;;213.30;75.50;;;;;;;-1.35;73.22;102183.14;130373;1267;108809;-76
2022/01/12 05:29:44;;;;;;;85.50;35.40;;;;;;;-1.27;73.13;102183.51;130351;1268;108784;-77
2022/01/12 05:32:49;;;;;;;57.20;26.20;;;;;;;-1.23;73.15;102180.84;130331;1268;108771;-78
2022/01/12 05:35:58;;;;;;;91.00;40.60;;;;;;;-1.36;73.07;102175.98;130371;1267;108880;-78
2022/01/12 05:39:05;;;;;;;79.90;33.70;;;;;;;-1.41;73.48;102168.23;130351;1268;107730;-76
2022/01/12 05:42:11;;;;;;;90.30;40.60;;;;;;;-1.36;73.26;102173.73;130377;1267;107666;-76
2022/01/12 05:45:18;;;;;;;109.50;49.60;;;;;;;-1.47;73.24;102181.95;130314;1267;108692;-79
2022/01/12 05:51:51;;;;;;;69.30;29.50;;;;;;;-1.53;73.37;102177.03;130347;1268;108833;-78
2022/01/12 05:54:57;;;;;;;59.60;25.80;;;;;;;-1.51;73.60;102180.13;130363;1268;108703;-77
2022/01/12 05:58:03;;;;;;;49.60;23.70;;;;;;;-1.50;73.35;102178.17;130327;1268;108704;-77
2022/01/12 06:01:08;;;;;;;73.20;32.90;;;;;;;-1.50;73.27;102182.89;130382;1267;108724;-78
2022/01/12 06:04:14;;;;;;;100.60;46.00;;;;;;;-1.70;73.00;102183.59;130280;1268;108742;-77
2022/01/12 06:07:21;;;;;;;112.20;50.00;;;;;;;-1.85;73.57;102184.56;130369;1268;108773;-78
2022/01/12 06:10:28;;;;;;;94.20;37.40;;;;;;;-1.85;73.51;102188.73;130384;1268;108663;-79
2022/01/12 06:13:35;;;;;;;115.50;43.50;;;;;;;-1.83;73.67;102189.77;130181;1268;108924;-79
2022/01/12 06:16:41;;;;;;;71.00;28.90;;;;;;;-1.70;73.63;102193.55;130400;1268;108892;-76
2022/01/12 06:19:46;;;;;;;58.10;26.50;;;;;;;-1.64;73.44;102198.50;130192;1268;108854;-77
2022/01/12 06:23:18;;;;;;;157.40;52.60;;;;;;;-1.72;73.51;102198.46;130338;1268;108749;-75
2022/01/12 06:26:29;;;;;;;77.20;31.60;;;;;;;-1.64;73.80;102199.20;130382;1268;108841;-74
2022/01/12 06:29:42;;;;;;;272.30;98.30;;;;;;;-1.54;73.68;102199.73;130317;1268;108781;-75
2022/01/12 06:32:47;;;;;;;98.30;38.50;;;;;;;-1.46;73.60;102200.63;130409;1267;108853;-72
2022/01/12 06:35:53;;;;;;;66.70;28.90;;;;;;;-1.42;73.43;102197.94;130341;1268;108842;-74
2022/01/12 06:38:58;;;;;;;263.90;98.60;;;;;;;-1.41;73.42;102200.19;130186;1268;108872;-74
2022/01/12 06:42:04;;;;;;;143.70;53.10;;;;;;;-1.52;73.21;102208.06;130222;1267;108973;-72
2022/01/12 06:45:11;;;;;;;90.10;39.70;;;;;;;-1.71;73.38;102207.17;130137;1268;108873;-74
2022/01/12 06:48:18;;;;;;;98.60;45.00;;;;;;;-1.85;73.60;102212.47;130327;1267;108867;-73
2022/01/12 06:51:25;;;;;;;98.50;46.30;;;;;;;-1.97;73.75;102212.83;129901;1268;108909;-74
2022/01/12 06:54:31;;;;;;;90.20;42.30;;;;;;;-1.95;74.14;102214.20;130328;1267;108741;-74
2022/01/12 06:57:37;;;;;;;104.10;44.90;;;;;;;-1.87;74.18;102221.05;130417;1268;107919;-74
2022/01/12 07:00:43;;;;;;;110.90;45.70;;;;;;;-1.81;73.85;102226.52;130464;1268;108888;-76
2022/01/12 07:03:50;;;;;;;92.30;39.90;;;;;;;-1.77;73.95;102230.13;130449;1268;108733;-74
2022/01/12 07:06:55;;;;;;;95.10;39.20;;;;;;;-1.69;73.94;102230.17;130428;1268;108749;-74
2022/01/12 07:10:02;;;;;;;92.70;38.30;;;;;;;-1.54;73.89;102233.23;130571;1267;108765;-74
2022/01/12 07:13:13;;;;;;;90.90;40.10;;;;;;;-1.42;73.68;102232.48;130551;1266;108744;-75
2022/01/12 07:16:19;;;;;;;86.40;37.30;;;;;;;-1.32;73.80;102233.52;130502;1267;108682;-74
2022/01/12 07:19:25;;;;;;;782.90;226.30;;;;;;;-1.26;73.64;102234.83;130428;1267;108807;-74
2022/01/12 07:22:30;;;;;;;289.50;83.60;;;;;;;-1.22;73.85;102234.56;130387;1267;109161;-73
2022/01/12 07:25:36;;;;;;;107.10;38.80;;;;;;;-1.18;73.49;102229.44;130596;1267;108918;-74
2022/01/12 07:28:43;;;;;;;84.70;36.30;;;;;;;-1.14;73.69;102229.02;130576;1267;107013;-74
2022/01/12 07:31:48;;;;;;;73.30;31.70;;;;;;;-1.11;73.65;102228.60;130505;1267;108587;-75
2022/01/12 07:34:54;;;;;;;69.40;31.50;;;;;;;-1.06;73.60;102233.41;130381;1268;108667;-75
2022/01/12 07:37:59;;;;;;;69.60;31.50;;;;;;;-0.99;73.76;102235.89;130396;1267;108771;-75
2022/01/12 07:41:05;;;;;;;92.50;42.40;;;;;;;-0.94;73.44;102240.14;130471;1267;108469;-74
2022/01/12 07:44:10;;;;;;;134.60;57.10;;;;;;;-0.90;73.55;102236.75;130551;1267;108697;-73
2022/01/12 07:47:15;;;;;;;100.40;43.20;;;;;;;-0.85;73.63;102234.02;130383;1267;108953;-74
2022/01/12 07:50:21;;;;;;;89.90;38.50;;;;;;;-0.77;73.56;102238.42;130427;1267;108702;-74
2022/01/12 07:53:26;;;;;;;84.90;36.10;;;;;;;-0.73;73.65;102226.44;130421;1267;108764;-74
2022/01/12 07:56:32;;;;;;;94.90;37.00;;;;;;;-0.65;73.74;102216.14;130477;1267;108702;-73
2022/01/12 07:59:37;;;;;;;79.20;34.50;;;;;;;-0.56;73.49;102218.21;130418;1267;109018;-73
2022/01/12 08:02:43;;;;;;;81.00;33.60;;;;;;;-0.45;73.50;102215.88;130406;1266;108906;-73
2022/01/12 08:05:49;;;;;;;80.10;33.80;;;;;;;-0.32;73.43;102214.73;130486;1267;108780;-74
2022/01/12 08:08:55;;;;;;;79.40;34.90;;;;;;;-0.22;73.31;102213.45;130376;1267;107946;-73
2022/01/12 08:12:00;;;;;;;81.70;37.90;;;;;;;-0.13;73.25;102216.03;130270;1268;108525;-73
2022/01/12 08:15:08;;;;;;;77.80;37.50;;;;;;;-0.09;73.42;102212.95;130473;1267;108887;-74
2022/01/12 08:18:14;;;;;;;84.30;39.40;;;;;;;-0.05;73.33;102210.59;130496;1267;108778;-73
2022/01/12 08:21:19;;;;;;;87.90;38.90;;;;;;;-0.01;73.43;102210.52;130544;1267;108647;-75
2022/01/12 08:24:25;;;;;;;83.20;38.70;;;;;;;-0.01;73.23;102206.98;130470;1267;107058;-80
2022/01/12 08:27:30;;;;;;;79.80;36.30;;;;;;;0.01;73.22;102207.29;130668;1267;108803;-71
2022/01/12 08:30:36;;;;;;;81.80;37.30;;;;;;;0.05;73.28;102210.52;130475;1267;108720;-70
2022/01/12 08:33:42;;;;;;;77.40;34.90;;;;;;;0.10;73.27;102206.39;130274;1267;108716;-70
2022/01/12 08:36:47;;;;;;;72.50;33.80;;;;;;;0.14;73.10;102199.29;130281;1266;106836;-71
2022/01/12 08:40:00;;;;;;;74.60;34.70;;;;;;;0.16;73.27;102202.03;130507;1267;108762;-70
2022/01/12 08:43:05;;;;;;;90.40;42.20;;;;;;;0.18;73.22;102209.52;130158;1267;108750;-71
2022/01/12 08:46:10;;;;;;;73.10;34.20;;;;;;;0.18;73.10;102216.16;130197;1267;108867;-71
2022/01/12 08:49:16;;;;;;;106.60;49.40;;;;;;;0.19;73.05;102208.42;130358;1267;108760;-70
2022/01/12 08:52:24;;;;;;;87.70;38.40;;;;;;;0.23;72.99;102200.98;130419;1266;108733;-71
2022/01/12 08:55:30;;;;;;;116.20;49.70;;;;;;;0.25;73.13;102198.49;130238;1267;106482;-71
2022/01/12 08:58:37;;;;;;;75.80;31.20;;;;;;;0.27;72.94;102187.06;130479;1266;107722;-70
2022/01/12 09:01:42;;;;;;;84.50;40.10;;;;;;;0.34;72.93;102186.86;130542;1267;108702;-70
2022/01/12 09:04:47;;;;;;;82.00;38.10;;;;;;;0.42;72.91;102182.12;130571;1266;108890;-70
2022/01/12 09:07:55;;;;;;;73.20;35.90;;;;;;;0.50;72.71;102175.42;130584;1266;108954;-70
2022/01/12 09:11:00;;;;;;;74.40;35.10;;;;;;;0.57;72.69;102176.64;130647;1267;108648;-72
2022/01/12 09:14:06;;;;;;;78.40;36.60;;;;;;;0.63;72.70;102172.98;130542;1267;108947;-70
2022/01/12 09:17:17;;;;;;;73.10;32.50;;;;;;;0.66;72.65;102172.37;130579;1267;108968;-70
2022/01/12 09:20:24;;;;;;;58.90;30.50;;;;;;;0.68;72.66;102175.47;130404;1267;108575;-70
2022/01/12 09:23:30;;;;;;;63.60;28.80;;;;;;;0.68;72.54;102167.06;130308;1267;108778;-70
2022/01/12 09:26:36;;;;;;;184.70;83.00;;;;;;;0.66;72.41;102172.54;130257;1265;108381;-70
2022/01/12 09:29:41;;;;;;;74.00;35.10;;;;;;;0.66;72.33;102168.52;130126;1267;108777;-71
2022/01/12 09:32:47;;;;;;;78.10;33.30;;;;;;;0.68;72.48;102159.54;130394;1267;108765;-70
2022/01/12 09:35:54;;;;;;;63.20;32.40;;;;;;;0.67;72.33;102155.85;130272;1267;108997;-71
2022/01/12 09:39:00;;;;;;;59.50;28.40;;;;;;;0.67;72.21;102153.61;130446;1267;108736;-70
2022/01/12 09:42:07;;;;;;;72.40;34.30;;;;;;;0.67;72.21;102152.54;130368;1267;108687;-71
2022/01/12 09:45:15;;;;;;;133.10;61.50;;;;;;;0.66;72.05;102163.45;130245;1267;109991;-71
2022/01/12 09:48:23;;;;;;;394.90;148.50;;;;;;;0.66;72.06;102170.79;130393;1267;107655;-71
2022/01/12 09:51:29;;;;;;;109.00;45.60;;;;;;;0.70;72.03;102172.08;130189;1267;108614;-71
2022/01/12 09:54:36;;;;;;;403.50;198.90;;;;;;;0.72;71.90;102176.73;130120;1267;106796;-71
2022/01/12 09:57:42;;;;;;;179.40;81.90;;;;;;;0.72;71.80;102168.89;130102;1267;108800;-70
2022/01/12 10:00:59;;;;;;;79.30;34.80;;;;;;;0.72;71.69;102166.41;130086;1267;108873;-71
2022/01/12 10:04:10;;;;;;;63.10;31.00;;;;;;;0.71;71.54;102160.50;130497;1267;107632;-71
2022/01/12 10:07:22;;;;;;;60.70;30.70;;;;;;;0.70;71.46;102153.86;130461;1267;107760;-71
2022/01/12 10:10:27;;;;;;;56.90;28.50;;;;;;;0.72;71.59;102143.83;130468;1267;108733;-70
2022/01/12 10:13:34;;;;;;;60.90;30.10;;;;;;;0.74;71.53;102143.96;130344;1267;108785;-71
2022/01/12 10:16:39;;;;;;;58.40;27.70;;;;;;;0.76;71.53;102141.42;130384;1267;108733;-72
2022/01/12 10:19:45;;;;;;;62.90;31.60;;;;;;;0.80;71.34;102144.31;130204;1267;108873;-71
2022/01/12 10:23:06;;;;;;;56.00;27.90;;;;;;;0.81;71.33;102145.16;130626;1267;108404;-70
2022/01/12 10:26:11;;;;;;;78.80;38.10;;;;;;;0.84;71.12;102149.44;130195;1267;108979;-70
2022/01/12 10:29:20;;;;;;;60.20;30.70;;;;;;;0.86;71.02;102148.52;130118;1267;110716;-71
2022/01/12 10:32:26;;;;;;;52.90;27.60;;;;;;;0.89;71.11;102145.80;130407;1266;108783;-70
2022/01/12 10:35:33;;;;;;;59.10;29.90;;;;;;;0.91;71.01;102133.31;130422;1266;108731;-70
2022/01/12 10:38:39;;;;;;;50.70;26.80;;;;;;;0.92;70.91;102130.64;130253;1267;109408;-69
2022/01/12 10:41:54;;;;;;;47.60;25.40;;;;;;;1.00;71.17;102130.41;130325;1266;108831;-71
2022/01/12 10:45:02;;;;;;;51.90;24.50;;;;;;;1.07;71.00;102128.78;130384;1267;108713;-71
2022/01/12 10:48:38;;;;;;;47.10;24.10;;;;;;;1.16;70.92;102131.85;130183;1266;108607;-70
2022/01/12 10:51:54;;;;;;;48.20;25.30;;;;;;;1.26;70.78;102134.36;130257;1266;108007;-71
2022/01/12 10:55:04;;;;;;;49.30;24.70;;;;;;;1.33;70.50;102129.23;130446;1267;108758;-70
2022/01/12 10:58:19;;;;;;;48.80;24.40;;;;;;;1.40;70.40;102135.17;130335;1267;109229;-70
2022/01/12 11:01:27;;;;;;;47.00;24.30;;;;;;;1.46;70.31;102135.86;130367;1267;109927;-77
2022/01/12 11:04:32;;;;;;;45.70;24.80;;;;;;;1.48;70.28;102133.15;130359;1267;109581;-76
2022/01/12 11:07:38;;;;;;;48.50;24.50;;;;;;;1.47;70.07;102128.08;130391;1267;108731;-76
2022/01/12 11:10:44;;;;;;;208.60;93.80;;;;;;;1.42;69.67;102119.13;130310;1267;108778;-76
2022/01/12 11:13:52;;;;;;;60.70;31.60;;;;;;;1.36;70.04;102118.44;130434;1267;108712;-76
2022/01/12 11:16:59;;;;;;;188.00;89.40;;;;;;;1.35;70.15;102115.69;130337;1265;108869;-75
2022/01/12 11:20:11;;;;;;;79.60;39.50;;;;;;;1.35;70.17;102112.52;130414;1267;109076;-74
2022/01/12 11:23:18;;;;;;;152.60;75.10;;;;;;;1.38;70.07;102101.72;130476;1266;108718;-74
2022/01/12 11:26:26;;;;;;;196.70;86.30;;;;;;;1.38;69.75;102098.73;130420;1267;108887;-74
2022/01/12 11:29:34;;;;;;;93.10;44.70;;;;;;;1.32;69.60;102100.88;130430;1267;107208;-75
2022/01/12 11:32:41;;;;;;;90.60;41.20;;;;;;;1.30;70.00;102101.08;130459;1267;109714;-75
2022/01/12 11:35:49;;;;;;;95.50;45.20;;;;;;;1.34;70.00;102098.71;130339;1267;108759;-75
2022/01/12 11:39:05;;;;;;;154.90;71.40;;;;;;;1.38;69.95;102088.41;130371;1266;106950;-73
2022/01/12 11:42:11;;;;;;;189.40;87.60;;;;;;;1.36;69.61;102083.40;130314;1267;109563;-73
2022/01/12 11:45:22;;;;;;;221.20;85.50;;;;;;;1.32;69.75;102089.63;130368;1267;108762;-74
2022/01/12 11:48:33;;;;;;;484.60;193.10;;;;;;;1.29;69.62;102098.31;130330;1267;108928;-74
2022/01/12 11:51:41;;;;;;;163.30;66.90;;;;;;;1.28;69.89;102097.83;130353;1267;107341;-75
2022/01/12 11:54:48;;;;;;;130.10;58.10;;;;;;;1.30;69.93;102094.77;130325;1267;108930;-75
2022/01/12 11:57:59;;;;;;;247.20;110.60;;;;;;;1.30;69.79;102092.16;130380;1267;108751;-74
2022/01/12 12:01:16;;;;;;;172.80;82.30;;;;;;;1.28;69.74;102086.78;130230;1267;182341;-74
2022/01/12 12:04:27;;;;;;;91.80;43.60;;;;;;;1.24;69.65;102081.84;130070;1267;108066;-71
2022/01/12 12:07:42;;;;;;;79.20;42.10;;;;;;;1.17;69.61;102072.40;130361;1267;107433;-74
2022/01/12 12:10:52;;;;;;;73.50;37.90;;;;;;;1.10;69.59;102069.30;130356;1267;108859;-75
2022/01/12 12:14:02;;;;;;;145.30;76.00;;;;;;;1.02;69.68;102063.23;130340;1267;108769;-76
2022/01/12 12:17:08;;;;;;;87.70;43.00;;;;;;;0.97;69.62;102059.16;130382;1266;108961;-74
2022/01/12 12:20:17;;;;;;;77.00;40.80;;;;;;;0.96;69.60;102064.10;130907;1267;108742;-74
2022/01/12 12:23:28;;;;;;;89.40;44.30;;;;;;;0.94;69.52;102063.81;130297;1268;108903;-76
2022/01/12 12:26:36;;;;;;;136.90;77.70;;;;;;;0.95;69.64;102070.96;130247;1268;108775;-76
2022/01/12 12:29:45;;;;;;;80.00;39.30;;;;;;;0.96;69.46;102060.61;130270;1268;108866;-74
2022/01/12 12:32:55;;;;;;;66.80;33.10;;;;;;;0.99;69.53;102058.94;130251;1268;108635;-75
2022/01/12 12:36:01;;;;;;;66.50;33.80;;;;;;;1.02;69.47;102059.54;130430;1267;108682;-73
2022/01/12 12:39:11;;;;;;;99.20;45.10;;;;;;;1.05;69.55;102061.03;130308;1266;108892;-75
2022/01/12 12:42:19;;;;;;;82.10;41.40;;;;;;;1.06;69.39;102054.69;130360;1267;108833;-75
2022/01/12 12:45:35;;;;;;;80.70;38.50;;;;;;;1.06;69.36;102057.14;130451;1265;107777;-75
2022/01/12 12:48:42;;;;;;;78.00;38.40;;;;;;;1.09;69.40;102063.17;130325;1267;108738;-74
2022/01/12 12:51:47;;;;;;;192.10;69.60;;;;;;;1.13;69.37;102051.64;130328;1267;108719;-75
2022/01/12 12:54:54;;;;;;;115.20;47.00;;;;;;;1.19;69.52;102050.27;130323;1267;107834;-79
2022/01/12 12:57:59;;;;;;;375.00;153.40;;;;;;;1.23;69.31;102054.16;130354;1266;108926;-77
2022/01/12 13:01:10;;;;;;;179.20;74.10;;;;;;;1.21;69.30;102054.23;130367;1267;108751;-76
2022/01/12 13:04:21;;;;;;;157.40;75.70;;;;;;;1.22;69.20;102046.14;130441;1266;108470;-77
2022/01/12 13:07:26;;;;;;;117.70;57.40;;;;;;;1.20;69.03;102038.82;130531;1266;108953;-77
2022/01/12 13:10:35;;;;;;;199.00;87.30;;;;;;;1.17;69.28;102048.73;130545;1267;108960;-79
2022/01/12 13:13:40;;;;;;;120.90;51.50;;;;;;;1.15;69.16;102049.66;130465;1266;108536;-76
2022/01/12 13:16:51;;;;;;;91.30;46.10;;;;;;;1.10;69.16;102046.15;130363;1267;107512;-76
2022/01/12 13:23:21;;;;;;;73.00;36.60;;;;;;;1.00;69.23;102039.29;130416;1267;108792;-74
2022/01/12 13:26:31;;;;;;;139.10;57.00;;;;;;;0.98;69.07;102036.88;130597;1267;108830;-73
2022/01/12 13:29:48;;;;;;;231.60;81.10;;;;;;;0.98;69.04;102030.92;130539;1267;106674;-73
2022/01/12 13:32:56;;;;;;;88.70;41.10;;;;;;;0.99;69.15;102029.66;130427;1266;109282;-75
2022/01/12 13:36:13;;;;;;;101.90;47.50;;;;;;;0.98;69.13;102024.27;130386;1267;108779;-75
2022/01/12 13:39:20;;;;;;;91.50;47.10;;;;;;;1.03;69.15;102022.20;130337;1267;108908;-75
2022/01/12 13:42:25;;;;;;;89.50;41.00;;;;;;;1.08;69.29;102017.64;130440;1267;109325;-75
2022/01/12 13:45:38;;;;;;;84.70;39.10;;;;;;;1.20;69.25;102014.12;130360;1267;108920;-74
2022/01/12 13:49:06;;;;;;;83.70;38.40;;;;;;;1.29;69.02;102008.38;130324;1267;107662;-74
2022/01/12 13:52:15;;;;;;;401.30;205.00;;;;;;;1.33;68.80;102002.98;130408;1267;108635;-75
2022/01/12 13:55:21;;;;;;;130.60;58.30;;;;;;;1.33;68.85;101998.64;130355;1267;107381;-74
2022/01/12 13:58:29;;;;;;;116.60;62.40;;;;;;;1.30;68.79;101993.42;130336;1267;108500;-72
2022/01/12 14:01:37;;;;;;;141.10;67.10;;;;;;;1.26;68.77;101997.27;130410;1265;108978;-74
2022/01/12 14:04:46;;;;;;;107.50;50.90;;;;;;;1.20;68.73;101990.44;130376;1267;108905;-74
2022/01/12 14:08:03;;;;;;;93.50;44.40;;;;;;;1.13;68.75;101994.50;130622;1267;108867;-75
2022/01/12 14:11:09;;;;;;;76.60;34.80;;;;;;;1.11;68.87;101993.38;130797;1266;108985;-74
2022/01/12 14:14:15;;;;;;;87.80;42.70;;;;;;;1.05;68.92;102002.84;130518;1267;108198;-75
2022/01/12 14:17:41;;;;;;;75.50;36.20;;;;;;;1.01;68.92;101995.77;130376;1267;109042;-73
2022/01/12 14:20:47;;;;;;;73.40;35.90;;;;;;;0.99;68.74;101993.77;130369;1267;108901;-74
2022/01/12 14:23:55;;;;;;;71.60;33.80;;;;;;;0.94;68.84;101993.19;130362;1267;107825;-74
2022/01/12 14:27:00;;;;;;;72.70;33.70;;;;;;;0.91;68.83;102002.37;130342;1267;108495;-75
2022/01/12 14:30:08;;;;;;;85.90;43.30;;;;;;;0.87;68.60;102005.88;130338;1266;108742;-74
2022/01/12 14:33:14;;;;;;;76.10;37.50;;;;;;;0.81;68.70;102013.58;130389;1267;108754;-73
2022/01/12 14:36:20;;;;;;;100.30;54.00;;;;;;;0.72;68.82;102011.39;130620;1267;108584;-76
2022/01/12 14:39:26;;;;;;;109.70;56.50;;;;;;;0.69;68.70;102002.39;130620;1267;107610;-76
2022/01/12 14:42:39;;;;;;;109.30;53.80;;;;;;;0.66;68.83;102003.35;130486;1267;108811;-74
2022/01/12 14:45:45;;;;;;;103.00;47.10;;;;;;;0.63;68.76;101999.44;130426;1267;108701;-76
2022/01/12 14:48:52;;;;;;;91.20;44.20;;;;;;;0.58;68.97;102004.63;130308;1267;109187;-74
2022/01/12 14:51:57;;;;;;;91.40;44.10;;;;;;;0.55;69.05;102004.02;130398;1267;108860;-74
2022/01/12 14:55:05;;;;;;;109.30;46.30;;;;;;;0.52;68.85;102002.35;130247;1267;108810;-75
2022/01/12 14:58:11;;;;;;;80.30;37.40;;;;;;;0.49;68.78;101997.73;130348;1267;108861;-76
2022/01/12 15:01:16;;;;;;;83.40;37.70;;;;;;;0.45;68.83;101990.14;130363;1267;108676;-74
2022/01/12 15:04:27;;;;;;;77.80;36.90;;;;;;;0.42;69.13;101995.32;130411;1267;108806;-74
2022/01/12 15:07:34;;;;;;;76.90;37.10;;;;;;;0.39;68.95;101989.25;130396;1267;108696;-74
2022/01/12 15:10:39;;;;;;;83.60;39.50;;;;;;;0.37;69.22;101992.82;130404;1267;108671;-74
2022/01/12 15:13:55;;;;;;;84.10;36.30;;;;;;;0.37;69.27;101989.16;130424;1266;108683;-75
2022/01/12 15:17:01;;;;;;;90.10;39.50;;;;;;;0.40;69.24;101985.21;130397;1267;108735;-76
2022/01/12 15:20:09;;;;;;;71.70;31.60;;;;;;;0.48;69.06;101983.94;130393;1267;108685;-83
2022/01/12 15:23:17;;;;;;;82.00;37.60;;;;;;;0.54;68.98;101977.79;130415;1266;108990;-78
2022/01/12 15:26:25;;;;;;;78.00;36.20;;;;;;;0.61;69.13;101973.90;130456;1267;108752;-77
2022/01/12 15:29:31;;;;;;;79.20;37.60;;;;;;;0.67;68.99;101976.52;130370;1267;108680;-80
2022/01/12 15:32:37;;;;;;;80.20;38.20;;;;;;;0.69;69.01;101970.86;130591;1266;108839;-79